Bartlett, Iowa
Current Conditions -  °F | °C
As of 7:15 AM on Sunday 21 Dec 2014 (Local Time) from KPMV Reporting Station
Haze Haze  
Wind Chill: 28°   Ceiling: 500
Heat Index: 36°   Visibility: 4mi
Dew Point: 35°   Wind: 12mph
Humidity: 94%   Direction: 160°SSE
Pressure: 29.91"   Gusts: NA
Location:  40.8429°N, 95.7754°W
Report Text: KPMV 211315Z AUTO 16010KT 4SM BR BKN005 OVC012 02/01 A2991 RMK AO2 T00220014
Loading
Personal Weather Stations






























Interactive Weather Map New forecast layout! Learn more

10-Day Weather Forecast

Advertisements
Track Severe Weather on mobile